Southern View, Illinois
Current Conditions -  °F | °C
As of 11:52 AM on Monday 24 Nov 2014 (Local Time) from KSPI Reporting Station
Overcast Overcast  
Wind Chill: 21°   Ceiling: 2700
Heat Index: 34°   Visibility: 10mi
Dew Point: 34°   Wind: 25mph
Humidity: 100%   Direction: 260°W
Pressure: 29.6"   Gusts: 37mph
Location:  39.7587°N, 89.6325°W
Report Text: KSPI 241752Z 26022G32KT 10SM OVC027 01/01 A2960 RMK AO2 PK WND 27034/1722 SLP026 60003 T00110011 10022 20011 51037
Loading
Personal Weather Stations






























Interactive Weather Map New forecast layout! Learn more

10-Day Weather Forecast

Advertisements
Track Severe Weather on mobile